JST460 YSSY-YBNA
Flight info
| Callsign | JST460 |
|---|---|
| Flight time | 0h 56m |
| Altitude | 37000 |
| Route | TESAT H252 OLSEM Y193 BNA |
| Aircraft | A320/M-SDE3FGHIRWY/LB1 |
Departure
| Time | 2026-05-08 05:27 |
|---|---|
| Airport | Sydney Kingsford Smith International Airport (YSSY) |
Arrival
| Time | 2026-05-08 06:23 |
|---|---|
| Airport | Ballina Byron Gateway Airport (YBNA) |
| Time | Latitude | Longitude | Altitude | Speed | Heading |
|---|---|---|---|---|---|
| 2026-05-08 04:59 | -33.93563 | 151.17760 | 30 ft | 0 kts | 281° |
| 2026-05-08 05:19 | -33.93566 | 151.17774 | 30 ft | 4 kts | 283° |
| 2026-05-08 05:19 | -33.93572 | 151.17805 | 30 ft | 4 kts | 277° |
| 2026-05-08 05:19 | -33.93572 | 151.17828 | 30 ft | 4 kts | 201° |
| 2026-05-08 05:19 | -33.93582 | 151.17826 | 30 ft | 4 kts | 190° |
| 2026-05-08 05:20 | -33.93608 | 151.17821 | 30 ft | 3 kts | 191° |
| 2026-05-08 05:20 | -33.93611 | 151.17820 | 30 ft | 0 kts | 191° |
| 2026-05-08 05:22 | -33.93620 | 151.17818 | 30 ft | 3 kts | 191° |
| 2026-05-08 05:23 | -33.93650 | 151.17810 | 30 ft | 6 kts | 193° |
| 2026-05-08 05:23 | -33.93700 | 151.17796 | 30 ft | 9 kts | 193° |
| 2026-05-08 05:23 | -33.93763 | 151.17797 | 30 ft | 10 kts | 139° |
| 2026-05-08 05:23 | -33.93802 | 151.17877 | 30 ft | 12 kts | 111° |
| 2026-05-08 05:24 | -33.93790 | 151.17987 | 30 ft | 15 kts | 75° |
| 2026-05-08 05:24 | -33.93760 | 151.18114 | 30 ft | 17 kts | 74° |
| 2026-05-08 05:24 | -33.93725 | 151.18260 | 30 ft | 19 kts | 73° |
| 2026-05-08 05:24 | -33.93686 | 151.18424 | 30 ft | 21 kts | 74° |
| 2026-05-08 05:25 | -33.93644 | 151.18604 | 30 ft | 23 kts | 74° |
| 2026-05-08 05:25 | -33.93603 | 151.18780 | 30 ft | 17 kts | 75° |
| 2026-05-08 05:25 | -33.93611 | 151.18907 | 29 ft | 14 kts | 124° |
| 2026-05-08 05:25 | -33.93702 | 151.18957 | 28 ft | 15 kts | 171° |
| 2026-05-08 05:26 | -33.93773 | 151.18915 | 27 ft | 10 kts | 249° |
| 2026-05-08 05:26 | -33.93785 | 151.18856 | 27 ft | 1 kts | 256° |
| 2026-05-08 05:26 | -33.93796 | 151.18810 | 25 ft | 20 kts | 255° |
| 2026-05-08 05:26 | -33.93901 | 151.18359 | 30 ft | 89 kts | 254° |
| 2026-05-08 05:27 | -33.94120 | 151.17439 | 53 ft | 136 kts | 254° |
| 2026-05-08 05:27 | -33.94375 | 151.16340 | 682 ft | 136 kts | 253° |
| 2026-05-08 05:27 | -33.94601 | 151.15249 | 1426 ft | 133 kts | 253° |
| 2026-05-08 05:27 | -33.94614 | 151.14141 | 2008 ft | 140 kts | 289° |
| 2026-05-08 05:28 | -33.93812 | 151.13363 | 2400 ft | 170 kts | 340° |
| 2026-05-08 05:28 | -33.92775 | 151.12709 | 2847 ft | 171 kts | 316° |
| 2026-05-08 05:28 | -33.91800 | 151.11837 | 3379 ft | 178 kts | 315° |
| 2026-05-08 05:28 | -33.90750 | 151.10985 | 3920 ft | 188 kts | 328° |
| 2026-05-08 05:29 | -33.89418 | 151.10661 | 4385 ft | 211 kts | 2° |
| 2026-05-08 05:29 | -33.88026 | 151.11403 | 4674 ft | 234 kts | 49° |
| 2026-05-08 05:29 | -33.87068 | 151.13068 | 5065 ft | 253 kts | 64° |
| 2026-05-08 05:29 | -33.86168 | 151.15001 | 5525 ft | 277 kts | 66° |
| 2026-05-08 05:30 | -33.85225 | 151.17096 | 6203 ft | 291 kts | 66° |
| 2026-05-08 05:30 | -33.84248 | 151.19257 | 7071 ft | 297 kts | 65° |
| 2026-05-08 05:30 | -33.83241 | 151.21454 | 7922 ft | 303 kts | 64° |
| 2026-05-08 05:30 | -33.82204 | 151.23685 | 8767 ft | 309 kts | 63° |
| 2026-05-08 05:31 | -33.81137 | 151.25958 | 9620 ft | 314 kts | 62° |
| 2026-05-08 05:31 | -33.80046 | 151.28275 | 10266 ft | 327 kts | 62° |
| 2026-05-08 05:31 | -33.78885 | 151.30742 | 10559 ft | 350 kts | 62° |
| 2026-05-08 05:31 | -33.77663 | 151.33332 | 11089 ft | 361 kts | 62° |
| 2026-05-08 05:32 | -33.76411 | 151.35981 | 11769 ft | 368 kts | 62° |
| 2026-05-08 05:32 | -33.75134 | 151.38682 | 12476 ft | 374 kts | 62° |
| 2026-05-08 05:32 | -33.73845 | 151.41414 | 13182 ft | 379 kts | 63° |
| 2026-05-08 05:32 | -33.72533 | 151.44184 | 13878 ft | 384 kts | 63° |
| 2026-05-08 05:33 | -33.71198 | 151.46999 | 14449 ft | 390 kts | 63° |
| 2026-05-08 05:33 | -33.69852 | 151.49840 | 15051 ft | 395 kts | 63° |
| 2026-05-08 05:33 | -33.68391 | 151.52602 | 15642 ft | 401 kts | 51° |
| 2026-05-08 05:33 | -33.66324 | 151.54857 | 16224 ft | 404 kts | 31° |
| 2026-05-08 05:34 | -33.63783 | 151.56256 | 16828 ft | 403 kts | 14° |
| 2026-05-08 05:34 | -33.61094 | 151.57250 | 17460 ft | 406 kts | 13° |
| 2026-05-08 05:34 | -33.58371 | 151.58241 | 18096 ft | 410 kts | 13° |
| 2026-05-08 05:34 | -33.55633 | 151.59232 | 18680 ft | 413 kts | 13° |
| 2026-05-08 05:35 | -33.52870 | 151.60235 | 19235 ft | 416 kts | 13° |
| 2026-05-08 05:35 | -33.50106 | 151.61242 | 19924 ft | 415 kts | 13° |
| 2026-05-08 05:35 | -33.47331 | 151.62255 | 20553 ft | 417 kts | 12° |
| 2026-05-08 05:35 | -33.44548 | 151.63276 | 21125 ft | 420 kts | 12° |
| 2026-05-08 05:36 | -33.41744 | 151.64306 | 21635 ft | 424 kts | 12° |
| 2026-05-08 05:36 | -33.38910 | 151.65344 | 22112 ft | 428 kts | 12° |
| 2026-05-08 05:36 | -33.36054 | 151.66393 | 22627 ft | 430 kts | 12° |
| 2026-05-08 05:36 | -33.33183 | 151.67442 | 23153 ft | 433 kts | 12° |
| 2026-05-08 05:37 | -33.30289 | 151.68497 | 23676 ft | 435 kts | 11° |
| 2026-05-08 05:37 | -33.27387 | 151.69558 | 24145 ft | 437 kts | 11° |
| 2026-05-08 05:37 | -33.24473 | 151.70622 | 24575 ft | 440 kts | 11° |
| 2026-05-08 05:37 | -33.21536 | 151.71693 | 24998 ft | 443 kts | 11° |
| 2026-05-08 05:38 | -33.18619 | 151.72757 | 25407 ft | 445 kts | 11° |
| 2026-05-08 05:38 | -33.15607 | 151.73852 | 25818 ft | 448 kts | 11° |
| 2026-05-08 05:38 | -33.12610 | 151.74944 | 26224 ft | 451 kts | 11° |
| 2026-05-08 05:38 | -33.09636 | 151.76027 | 26591 ft | 454 kts | 12° |
| 2026-05-08 05:39 | -33.06607 | 151.77127 | 27026 ft | 456 kts | 12° |
| 2026-05-08 05:39 | -33.03561 | 151.78233 | 27425 ft | 459 kts | 12° |
| 2026-05-08 05:39 | -33.00496 | 151.79341 | 27807 ft | 462 kts | 12° |
| 2026-05-08 05:39 | -32.97412 | 151.80453 | 28185 ft | 465 kts | 12° |
| 2026-05-08 05:40 | -32.94307 | 151.81576 | 28560 ft | 468 kts | 12° |
| 2026-05-08 05:40 | -32.91183 | 151.82708 | 28932 ft | 471 kts | 12° |
| 2026-05-08 05:40 | -32.88037 | 151.83845 | 29298 ft | 474 kts | 12° |
| 2026-05-08 05:40 | -32.84880 | 151.84987 | 29742 ft | 475 kts | 12° |
| 2026-05-08 05:41 | -32.81719 | 151.86135 | 30184 ft | 477 kts | 12° |
| 2026-05-08 05:41 | -32.78534 | 151.87290 | 30541 ft | 479 kts | 12° |
| 2026-05-08 05:41 | -32.75341 | 151.88448 | 30920 ft | 480 kts | 12° |
| 2026-05-08 05:41 | -32.72149 | 151.89600 | 31301 ft | 480 kts | 12° |
| 2026-05-08 05:42 | -32.68951 | 151.90750 | 31720 ft | 480 kts | 11° |
| 2026-05-08 05:42 | -32.65760 | 151.91896 | 32294 ft | 476 kts | 11° |
| 2026-05-08 05:42 | -32.62607 | 151.93032 | 32909 ft | 472 kts | 11° |
| 2026-05-08 05:42 | -32.59471 | 151.94162 | 33526 ft | 468 kts | 10° |
| 2026-05-08 05:43 | -32.56367 | 151.95276 | 34110 ft | 465 kts | 10° |
| 2026-05-08 05:43 | -32.53283 | 151.96381 | 34582 ft | 462 kts | 9° |
| 2026-05-08 05:43 | -32.50205 | 151.97483 | 34995 ft | 461 kts | 9° |
| 2026-05-08 05:43 | -32.47178 | 151.98567 | 35367 ft | 460 kts | 9° |
| 2026-05-08 05:44 | -32.44067 | 151.99680 | 35707 ft | 460 kts | 8° |
| 2026-05-08 05:44 | -32.41056 | 152.00760 | 36108 ft | 458 kts | 8° |
| 2026-05-08 05:44 | -32.38010 | 152.01852 | 36486 ft | 457 kts | 8° |
| 2026-05-08 05:44 | -32.34969 | 152.02937 | 36816 ft | 456 kts | 8° |
| 2026-05-08 05:45 | -32.31927 | 152.04020 | 37048 ft | 457 kts | 7° |
| 2026-05-08 05:45 | -32.25845 | 152.06186 | 37092 ft | 455 kts | 7° |
| 2026-05-08 05:46 | -32.19739 | 152.08356 | 37096 ft | 455 kts | 7° |
| 2026-05-08 05:46 | -32.13726 | 152.10499 | 37099 ft | 455 kts | 7° |
| 2026-05-08 05:47 | -32.07656 | 152.12650 | 37100 ft | 455 kts | 7° |
| 2026-05-08 05:47 | -32.01595 | 152.14799 | 37102 ft | 455 kts | 7° |
| 2026-05-08 05:48 | -31.95534 | 152.16950 | 37089 ft | 455 kts | 7° |
| 2026-05-08 05:48 | -31.89477 | 152.19083 | 37104 ft | 454 kts | 7° |
| 2026-05-08 05:49 | -31.83426 | 152.21215 | 37107 ft | 454 kts | 7° |
| 2026-05-08 05:49 | -31.77372 | 152.23352 | 37070 ft | 454 kts | 7° |
| 2026-05-08 05:50 | -31.71325 | 152.25490 | 37108 ft | 453 kts | 6° |
| 2026-05-08 05:50 | -31.65287 | 152.27609 | 37118 ft | 452 kts | 6° |
| 2026-05-08 05:51 | -31.59302 | 152.29713 | 37119 ft | 452 kts | 6° |
| 2026-05-08 05:51 | -31.53287 | 152.31834 | 37098 ft | 451 kts | 6° |
| 2026-05-08 05:52 | -31.47280 | 152.33940 | 37117 ft | 450 kts | 6° |
| 2026-05-08 05:52 | -31.41274 | 152.36032 | 37125 ft | 450 kts | 6° |
| 2026-05-08 05:53 | -31.35285 | 152.38118 | 37122 ft | 449 kts | 6° |
| 2026-05-08 05:53 | -31.30300 | 152.39860 | 37085 ft | 449 kts | 6° |
| 2026-05-08 05:54 | -31.24321 | 152.41946 | 37100 ft | 448 kts | 6° |
| 2026-05-08 05:54 | -31.18354 | 152.44023 | 37104 ft | 447 kts | 6° |
| 2026-05-08 05:55 | -31.12390 | 152.46094 | 37107 ft | 448 kts | 6° |
| 2026-05-08 05:55 | -31.06427 | 152.48171 | 37076 ft | 447 kts | 5° |
| 2026-05-08 05:56 | -31.00479 | 152.50238 | 37101 ft | 446 kts | 5° |
| 2026-05-08 05:56 | -30.94527 | 152.52300 | 37110 ft | 445 kts | 5° |
| 2026-05-08 05:57 | -30.88633 | 152.54333 | 36867 ft | 445 kts | 5° |
| 2026-05-08 05:57 | -30.85654 | 152.55356 | 36261 ft | 445 kts | 5° |
| 2026-05-08 05:57 | -30.82701 | 152.56374 | 35870 ft | 441 kts | 5° |
| 2026-05-08 05:57 | -30.79776 | 152.57451 | 35428 ft | 444 kts | 11° |
| 2026-05-08 05:58 | -30.76918 | 152.58882 | 34955 ft | 447 kts | 14° |
| 2026-05-08 05:58 | -30.74079 | 152.60345 | 34481 ft | 446 kts | 14° |
| 2026-05-08 05:58 | -30.71242 | 152.61805 | 33966 ft | 445 kts | 14° |
| 2026-05-08 05:58 | -30.68415 | 152.63258 | 33440 ft | 443 kts | 15° |
| 2026-05-08 05:59 | -30.65597 | 152.64709 | 32940 ft | 441 kts | 15° |
| 2026-05-08 05:59 | -30.62808 | 152.66144 | 32425 ft | 438 kts | 15° |
| 2026-05-08 05:59 | -30.60030 | 152.67573 | 31981 ft | 435 kts | 14° |
| 2026-05-08 05:59 | -30.57264 | 152.68989 | 31508 ft | 433 kts | 15° |
| 2026-05-08 06:00 | -30.54518 | 152.70390 | 31050 ft | 430 kts | 15° |
| 2026-05-08 06:00 | -30.51784 | 152.71782 | 30607 ft | 428 kts | 15° |
| 2026-05-08 06:00 | -30.49061 | 152.73169 | 30163 ft | 426 kts | 16° |
| 2026-05-08 06:00 | -30.46358 | 152.74547 | 29687 ft | 423 kts | 16° |
| 2026-05-08 06:01 | -30.43681 | 152.75915 | 29280 ft | 419 kts | 16° |
| 2026-05-08 06:01 | -30.41027 | 152.77272 | 28865 ft | 415 kts | 16° |
| 2026-05-08 06:01 | -30.38397 | 152.78614 | 28461 ft | 412 kts | 16° |
| 2026-05-08 06:01 | -30.35781 | 152.79945 | 28070 ft | 409 kts | 16° |
| 2026-05-08 06:02 | -30.33184 | 152.81266 | 27674 ft | 406 kts | 17° |
| 2026-05-08 06:02 | -30.30606 | 152.82577 | 27262 ft | 403 kts | 17° |
| 2026-05-08 06:02 | -30.28046 | 152.83881 | 26845 ft | 401 kts | 16° |
| 2026-05-08 06:02 | -30.25499 | 152.85178 | 26436 ft | 399 kts | 16° |
| 2026-05-08 06:03 | -30.22960 | 152.86465 | 26031 ft | 397 kts | 16° |
| 2026-05-08 06:03 | -30.20434 | 152.87746 | 25617 ft | 395 kts | 17° |
| 2026-05-08 06:03 | -30.17922 | 152.89020 | 25170 ft | 394 kts | 17° |
| 2026-05-08 06:03 | -30.15418 | 152.90289 | 24762 ft | 392 kts | 17° |
| 2026-05-08 06:04 | -30.12930 | 152.91550 | 24339 ft | 390 kts | 17° |
| 2026-05-08 06:04 | -30.10447 | 152.92808 | 23906 ft | 389 kts | 18° |
| 2026-05-08 06:04 | -30.07968 | 152.94062 | 23435 ft | 388 kts | 18° |
| 2026-05-08 06:04 | -30.05501 | 152.95310 | 22987 ft | 385 kts | 18° |
| 2026-05-08 06:05 | -30.03053 | 152.96546 | 22560 ft | 382 kts | 18° |
| 2026-05-08 06:05 | -30.00625 | 152.97771 | 22145 ft | 380 kts | 18° |
| 2026-05-08 06:05 | -29.98213 | 152.98988 | 21713 ft | 377 kts | 18° |
| 2026-05-08 06:05 | -29.95815 | 153.00197 | 21291 ft | 375 kts | 18° |
| 2026-05-08 06:06 | -29.93460 | 153.01385 | 20872 ft | 373 kts | 19° |
| 2026-05-08 06:06 | -29.91093 | 153.02581 | 20459 ft | 371 kts | 19° |
| 2026-05-08 06:06 | -29.88733 | 153.03774 | 20039 ft | 369 kts | 19° |
| 2026-05-08 06:06 | -29.86391 | 153.04954 | 19622 ft | 367 kts | 19° |
| 2026-05-08 06:07 | -29.84054 | 153.06128 | 19204 ft | 366 kts | 19° |
| 2026-05-08 06:07 | -29.81725 | 153.07300 | 18793 ft | 365 kts | 19° |
| 2026-05-08 06:07 | -29.79402 | 153.08472 | 18378 ft | 364 kts | 20° |
| 2026-05-08 06:07 | -29.77089 | 153.09638 | 17924 ft | 362 kts | 20° |
| 2026-05-08 06:08 | -29.74783 | 153.10797 | 17511 ft | 360 kts | 20° |
| 2026-05-08 06:08 | -29.72495 | 153.11942 | 17103 ft | 357 kts | 20° |
| 2026-05-08 06:08 | -29.70224 | 153.13078 | 16703 ft | 355 kts | 19° |
| 2026-05-08 06:08 | -29.67965 | 153.14212 | 16301 ft | 354 kts | 19° |
| 2026-05-08 06:09 | -29.65710 | 153.15345 | 15906 ft | 352 kts | 19° |
| 2026-05-08 06:09 | -29.63469 | 153.16473 | 15510 ft | 351 kts | 20° |
| 2026-05-08 06:09 | -29.61238 | 153.17594 | 15117 ft | 349 kts | 20° |
| 2026-05-08 06:09 | -29.59011 | 153.18709 | 14721 ft | 348 kts | 20° |
| 2026-05-08 06:10 | -29.56792 | 153.19818 | 14332 ft | 347 kts | 20° |
| 2026-05-08 06:10 | -29.54579 | 153.20927 | 13939 ft | 347 kts | 20° |
| 2026-05-08 06:10 | -29.52372 | 153.22030 | 13517 ft | 346 kts | 20° |
| 2026-05-08 06:10 | -29.50165 | 153.23135 | 12944 ft | 344 kts | 20° |
| 2026-05-08 06:11 | -29.47999 | 153.24222 | 12604 ft | 337 kts | 20° |
| 2026-05-08 06:11 | -29.45857 | 153.25293 | 12251 ft | 335 kts | 20° |
| 2026-05-08 06:11 | -29.43727 | 153.26354 | 11865 ft | 333 kts | 20° |
| 2026-05-08 06:11 | -29.41602 | 153.27414 | 11489 ft | 332 kts | 20° |
| 2026-05-08 06:12 | -29.39482 | 153.28468 | 11108 ft | 332 kts | 21° |
| 2026-05-08 06:12 | -29.37365 | 153.29521 | 10727 ft | 331 kts | 21° |
| 2026-05-08 06:12 | -29.35255 | 153.30570 | 10343 ft | 330 kts | 21° |
| 2026-05-08 06:12 | -29.33152 | 153.31613 | 9957 ft | 330 kts | 21° |
| 2026-05-08 06:13 | -29.31100 | 153.32633 | 9679 ft | 318 kts | 21° |
| 2026-05-08 06:13 | -29.29097 | 153.33634 | 9195 ft | 310 kts | 21° |
| 2026-05-08 06:13 | -29.27148 | 153.34605 | 8828 ft | 305 kts | 21° |
| 2026-05-08 06:13 | -29.25203 | 153.35571 | 8454 ft | 305 kts | 21° |
| 2026-05-08 06:14 | -29.23253 | 153.36539 | 8099 ft | 305 kts | 21° |
| 2026-05-08 06:14 | -29.21309 | 153.37501 | 7729 ft | 305 kts | 22° |
| 2026-05-08 06:14 | -29.19359 | 153.38469 | 7361 ft | 305 kts | 22° |
| 2026-05-08 06:14 | -29.17420 | 153.39433 | 6997 ft | 301 kts | 22° |
| 2026-05-08 06:15 | -29.15505 | 153.40385 | 6629 ft | 297 kts | 22° |
| 2026-05-08 06:15 | -29.13619 | 153.41321 | 6253 ft | 294 kts | 22° |
| 2026-05-08 06:15 | -29.11751 | 153.42249 | 5880 ft | 290 kts | 22° |
| 2026-05-08 06:15 | -29.09900 | 153.43165 | 5513 ft | 290 kts | 22° |
| 2026-05-08 06:16 | -29.08055 | 153.44078 | 5147 ft | 288 kts | 22° |
| 2026-05-08 06:16 | -29.06226 | 153.44984 | 4782 ft | 285 kts | 22° |
| 2026-05-08 06:16 | -29.04420 | 153.45777 | 4492 ft | 276 kts | 12° |
| 2026-05-08 06:16 | -29.02564 | 153.45939 | 4301 ft | 262 kts | 351° |
| 2026-05-08 06:17 | -28.99406 | 153.44492 | 4045 ft | 233 kts | 326° |
| 2026-05-08 06:17 | -28.98024 | 153.43573 | 3942 ft | 228 kts | 327° |
| 2026-05-08 06:17 | -28.96658 | 153.42667 | 3836 ft | 225 kts | 326° |
| 2026-05-08 06:18 | -28.95336 | 153.41792 | 3734 ft | 215 kts | 327° |
| 2026-05-08 06:18 | -28.94069 | 153.40957 | 3630 ft | 206 kts | 327° |
| 2026-05-08 06:18 | -28.92802 | 153.40216 | 3483 ft | 206 kts | 337° |
| 2026-05-08 06:18 | -28.91398 | 153.39889 | 3216 ft | 204 kts | 355° |
| 2026-05-08 06:19 | -28.90030 | 153.40039 | 2953 ft | 194 kts | 11° |
| 2026-05-08 06:19 | -28.88808 | 153.40590 | 2727 ft | 184 kts | 27° |
| 2026-05-08 06:19 | -28.87805 | 153.41443 | 2497 ft | 178 kts | 42° |
| 2026-05-08 06:19 | -28.87043 | 153.42524 | 2280 ft | 173 kts | 57° |
| 2026-05-08 06:20 | -28.86551 | 153.43764 | 2043 ft | 171 kts | 73° |
| 2026-05-08 06:20 | -28.86222 | 153.45059 | 1818 ft | 170 kts | 73° |
| 2026-05-08 06:20 | -28.85895 | 153.46316 | 1587 ft | 159 kts | 73° |
| 2026-05-08 06:20 | -28.85595 | 153.47467 | 1407 ft | 147 kts | 73° |
| 2026-05-08 06:21 | -28.85309 | 153.48557 | 1203 ft | 141 kts | 73° |
| 2026-05-08 06:21 | -28.85030 | 153.49617 | 1020 ft | 138 kts | 73° |
| 2026-05-08 06:21 | -28.84755 | 153.50664 | 835 ft | 137 kts | 73° |
| 2026-05-08 06:21 | -28.84484 | 153.51700 | 662 ft | 136 kts | 73° |
| 2026-05-08 06:22 | -28.84214 | 153.52728 | 482 ft | 135 kts | 73° |
| 2026-05-08 06:22 | -28.83946 | 153.53753 | 307 ft | 134 kts | 73° |
| 2026-05-08 06:22 | -28.83678 | 153.54774 | 116 ft | 134 kts | 73° |
| 2026-05-08 06:22 | -28.83420 | 153.55767 | 15 ft | 118 kts | 73° |
| 2026-05-08 06:23 | -28.83238 | 153.56467 | 14 ft | 69 kts | 73° |
| 2026-05-08 06:23 | -28.83143 | 153.56831 | 14 ft | 38 kts | 73° |
| 2026-05-08 06:23 | -28.83091 | 153.56994 | 16 ft | 9 kts | 49° |
| 2026-05-08 06:23 | -28.83088 | 153.57023 | 16 ft | 2 kts | 200° |
| 2026-05-08 06:24 | -28.83105 | 153.56971 | 15 ft | 11 kts | 254° |
| 2026-05-08 06:24 | -28.83134 | 153.56858 | 15 ft | 19 kts | 253° |
| 2026-05-08 06:24 | -28.83176 | 153.56689 | 17 ft | 25 kts | 253° |
| 2026-05-08 06:24 | -28.83232 | 153.56476 | 14 ft | 31 kts | 253° |
| 2026-05-08 06:25 | -28.83295 | 153.56227 | 16 ft | 36 kts | 253° |
| 2026-05-08 06:25 | -28.83370 | 153.55945 | 15 ft | 38 kts | 253° |
| 2026-05-08 06:25 | -28.83431 | 153.55714 | 14 ft | 17 kts | 253° |
| 2026-05-08 06:25 | -28.83481 | 153.55656 | 14 ft | 12 kts | 178° |
| 2026-05-08 06:26 | -28.83553 | 153.55680 | 14 ft | 11 kts | 163° |
| 2026-05-08 06:26 | -28.83612 | 153.55695 | 14 ft | 7 kts | 184° |
| 2026-05-08 06:26 | -28.83646 | 153.55649 | 14 ft | 8 kts | 228° |
| 2026-05-08 06:26 | -28.83682 | 153.55623 | 14 ft | 2 kts | 207° |
| 2026-05-08 06:27 | -28.83693 | 153.55616 | 16 ft | 1 kts | 208° |
| 2026-05-08 06:27 | -28.83695 | 153.55615 | 15 ft | 0 kts | 207° |